メインページ
METAR-TAF:

METAR-TAF

空港 :

カラチ, パキスタン

ジンナー国際空港

緯度: 24-54N, 経度: 067-08E, 海抜: 21m

現時点の気象観測

当レポートは23分前の11:55(UTC)に作成
西/南西の風 14kt
気温 27°C
湿度 54%
気圧 1012 hPa
視程: 6000m

METAR: OPKC 241155Z 24014KT 6000 NSC 27/17 Q1012 NOSIG

時間: 17:18 (12:18 UTC)

予報

当レポートは2時間48分前の09:30(UTC)に作成
予報は24日の 12時(UTC)から 25日の 18時(UTC)まで有効
西の風 10kt
視程: 5000m
高度2000ftの雲はほとんどない
煙霧
24日の 19時(UTC)から 24日の 21時(UTC)まで徐々に
北西の風 8kt
視程: 3000m
高度2000ftの雲はほとんどない
25日の 01時(UTC)から 25日の 05時(UTC)まで一時的に
北/北東の風 5kt
視程: 1000m
高度2000ftの雲はほとんどない
25日の 0600時(UTC)から
東/北東の風 10kt
視程: 5000m
高度2000ftの雲はほとんどない
煙霧

TAF: OPKC 240930Z 2412/2518 27010KT 5000 HZ FEW020 BECMG 2419/2421 31008KT 3000 FU FEW020 TEMPO 2501/2505 03005KT 1000 BR FEW020 FM250600 06010KT 5000 HZ FEW020

4,000以上の空港の気象観測と天気予報(METAR報とTAF報)

利用可能な観測所は地図上に黄色い丸と赤い丸で示す。

丸の上にカーソルを重ねると観測所名を参照できる。

次にクリックすると気象観測と天気予報を参照できる。

マップの切り替え:黒色「×」印の緑ボタンをクリックして拡大、「-」印の緑ボタンをクリックして縮小、緑色の三角印をクリックして隣りの地図に切り替え


METAR-TAF: